State University, North Carolina
Current Conditions -  °F | °C
As of 9:51 AM on Wednesday 22 Oct 2014 (Local Time) from KRDU Reporting Station
Scattered Clouds Scattered Clouds  
Wind Chill: 55°   Ceiling: Unl
Heat Index: 55°   Visibility: 10mi
Dew Point: 38°   Wind: 10mph
Humidity: 53%   Direction: 320°NW
Pressure: 30"   Gusts: 18mph
Location:  35.8072°N, 78.7126°W
Report Text: KRDU 221351Z 32009G16KT 280V350 10SM FEW050 SCT070 13/03 A3000 RMK AO2 SLP157 T01280033 $
Loading
Personal Weather Stations






























Interactive Weather Map
Tropical Storm Tracking
New forecast layout! Learn more

10-Day Weather Forecast

Advertisements
Track Severe Weather on mobile